createdAt,value
2022-10-31T00:00:31.196Z,52.70
2022-10-31T00:02:58.016Z,52.55
2022-10-31T00:05:24.672Z,52.77
2022-10-31T00:07:53.883Z,52.76
2022-10-31T00:10:20.356Z,52.62
2022-10-31T00:12:46.799Z,52.55
2022-10-31T00:15:13.259Z,52.75
2022-10-31T00:17:39.705Z,52.59
2022-10-31T00:20:06.810Z,52.50
2022-10-31T00:22:33.370Z,52.55
2022-10-31T00:24:59.890Z,52.47
2022-10-31T00:27:26.470Z,52.38
2022-10-31T00:29:52.947Z,52.43
2022-10-31T00:32:19.404Z,52.59
2022-10-31T00:34:45.843Z,52.74
2022-10-31T00:37:12.365Z,52.63
2022-10-31T00:39:38.823Z,52.54
2022-10-31T00:42:05.347Z,52.61
2022-10-31T00:44:31.905Z,52.67
2022-10-31T00:46:58.362Z,52.66
2022-10-31T00:49:24.858Z,52.35
2022-10-31T00:51:51.363Z,52.48
2022-10-31T00:54:17.914Z,52.32
2022-10-31T00:56:44.414Z,52.41
2022-10-31T00:59:10.851Z,52.40
2022-10-31T01:01:37.502Z,52.35
2022-10-31T01:04:04.295Z,52.43
2022-10-31T01:06:30.766Z,52.41
2022-10-31T01:08:57.338Z,52.30
2022-10-31T01:11:24.625Z,52.53
2022-10-31T01:13:53.261Z,52.36
2022-10-31T01:16:21.530Z,52.37
2022-10-31T01:18:49.396Z,52.49
2022-10-31T01:21:18.820Z,52.41
2022-10-31T01:23:45.943Z,52.44
2022-10-31T01:26:16.149Z,52.30
2022-10-31T01:28:47.633Z,52.40
2022-10-31T01:31:15.096Z,52.34
2022-10-31T01:33:41.832Z,52.35
2022-10-31T01:36:19.761Z,52.33
2022-10-31T01:38:48.342Z,52.27
2022-10-31T01:41:18.752Z,52.22
2022-10-31T01:43:51.152Z,52.35
2022-10-31T01:46:23.024Z,52.29
2022-10-31T01:48:50.543Z,52.20
2022-10-31T01:51:20.787Z,52.33
2022-10-31T01:53:47.919Z,52.13
2022-10-31T01:56:17.112Z,52.35
2022-10-31T01:58:45.071Z,52.39
2022-10-31T02:01:13.373Z,52.36
2022-10-31T02:03:40.289Z,52.18
2022-10-31T02:06:11.809Z,52.36
2022-10-31T02:08:40.055Z,52.15
2022-10-31T02:11:08.293Z,52.26
2022-10-31T02:13:35.411Z,52.28
2022-10-31T02:16:02.090Z,52.37
2022-10-31T02:18:31.422Z,52.19
2022-10-31T02:21:20.721Z,52.12
2022-10-31T02:24:01.870Z,52.36
2022-10-31T02:27:05.861Z,52.38
2022-10-31T02:29:49.608Z,52.44
2022-10-31T02:32:37.829Z,52.23
2022-10-31T02:35:07.134Z,52.34
2022-10-31T02:37:33.595Z,52.32
2022-10-31T02:40:08.824Z,52.30
2022-10-31T02:42:44.628Z,52.31
2022-10-31T02:45:24.255Z,52.20
2022-10-31T02:47:54.776Z,52.30
2022-10-31T02:50:27.946Z,52.40
2022-10-31T02:52:54.734Z,53.25
2022-10-31T02:55:24.306Z,54.72
2022-10-31T02:57:54.511Z,55.76
2022-10-31T03:00:21.183Z,56.12
2022-10-31T03:03:12.988Z,56.73
2022-10-31T03:06:04.220Z,58.45
2022-10-31T03:08:39.853Z,58.94
2022-10-31T03:11:08.938Z,58.57
2022-10-31T03:13:41.095Z,58.51
2022-10-31T03:16:15.961Z,59.00
2022-10-31T03:19:18.077Z,58.64
2022-10-31T03:21:53.718Z,58.67
2022-10-31T03:24:22.719Z,58.34
2022-10-31T03:26:55.836Z,58.11
2022-10-31T03:29:27.383Z,58.11
2022-10-31T03:32:02.479Z,58.10
2022-10-31T03:34:31.802Z,57.91
2022-10-31T03:37:02.474Z,58.07
2022-10-31T03:39:30.119Z,58.00
2022-10-31T03:42:13.146Z,57.71
2022-10-31T03:44:44.020Z,57.63
2022-10-31T03:47:10.789Z,57.48
2022-10-31T03:49:37.603Z,57.27
2022-10-31T03:52:07.028Z,57.15
2022-10-31T03:54:44.288Z,57.11
2022-10-31T03:57:19.949Z,57.03
2022-10-31T03:59:52.787Z,57.02
2022-10-31T04:02:26.386Z,57.02
2022-10-31T04:04:53.353Z,57.09
2022-10-31T04:07:23.525Z,56.87
2022-10-31T04:09:52.450Z,56.68
2022-10-31T04:12:19.579Z,56.65
2022-10-31T04:14:48.728Z,56.68
2022-10-31T04:17:18.889Z,56.46
2022-10-31T04:19:45.421Z,56.41
2022-10-31T04:22:12.191Z,56.16
2022-10-31T04:24:40.766Z,56.25
2022-10-31T04:27:07.600Z,56.06
2022-10-31T04:29:34.284Z,55.97
2022-10-31T04:32:00.732Z,55.91
2022-10-31T04:34:27.171Z,55.79
2022-10-31T04:36:53.667Z,55.87
2022-10-31T04:39:24.247Z,55.67
2022-10-31T04:41:53.278Z,55.75
2022-10-31T04:44:19.831Z,55.62
2022-10-31T04:46:46.320Z,55.42
2022-10-31T04:49:12.766Z,55.43
2022-10-31T04:51:39.403Z,55.46
2022-10-31T04:54:05.899Z,55.43
2022-10-31T04:56:32.393Z,55.40
2022-10-31T04:58:58.963Z,55.37
2022-10-31T05:01:25.562Z,55.18
2022-10-31T05:03:52.191Z,55.32
2022-10-31T05:06:18.649Z,55.24
2022-10-31T05:08:45.102Z,55.39
2022-10-31T05:11:12.030Z,55.06
2022-10-31T05:13:39.080Z,55.17
2022-10-31T05:16:05.927Z,55.19
2022-10-31T05:18:32.358Z,55.25
2022-10-31T05:20:58.800Z,55.01
2022-10-31T05:23:25.250Z,55.04
2022-10-31T05:25:51.768Z,54.95
2022-10-31T05:28:18.234Z,54.88
2022-10-31T05:30:44.760Z,54.75
2022-10-31T05:33:11.334Z,54.92
2022-10-31T05:35:37.786Z,54.94
2022-10-31T05:38:04.319Z,54.59
2022-10-31T05:40:30.867Z,54.73
2022-10-31T05:42:59.717Z,54.69
2022-10-31T05:45:26.732Z,54.74
2022-10-31T05:47:58.836Z,54.63
2022-10-31T05:50:27.611Z,54.58
2022-10-31T05:53:02.113Z,54.61
2022-10-31T05:55:30.007Z,54.46
2022-10-31T05:57:56.778Z,54.47
2022-10-31T06:00:25.051Z,54.56
2022-10-31T06:03:06.189Z,54.31
2022-10-31T06:05:33.414Z,54.42
2022-10-31T06:08:01.221Z,54.39
2022-10-31T06:10:28.551Z,54.28
2022-10-31T06:12:55.094Z,54.26
2022-10-31T06:15:24.535Z,54.29
2022-10-31T06:18:03.455Z,54.26
2022-10-31T06:20:30.544Z,54.13
2022-10-31T06:22:57.214Z,54.17
2022-10-31T06:25:24.340Z,54.17
2022-10-31T06:27:50.861Z,54.14
2022-10-31T06:30:17.384Z,54.12
2022-10-31T06:32:43.944Z,54.06
2022-10-31T06:35:10.875Z,53.96
2022-10-31T06:37:38.010Z,54.16
2022-10-31T06:40:04.942Z,54.08
2022-10-31T06:42:31.389Z,54.08
2022-10-31T06:44:57.852Z,53.92
2022-10-31T06:47:24.648Z,54.02
2022-10-31T06:49:51.091Z,53.90
2022-10-31T06:52:17.555Z,53.85
2022-10-31T06:54:44.002Z,53.84
2022-10-31T06:57:10.479Z,53.84
2022-10-31T06:59:36.929Z,53.82
2022-10-31T07:02:03.661Z,53.65
2022-10-31T07:04:30.256Z,53.67
2022-10-31T07:06:56.758Z,53.54
2022-10-31T07:09:23.261Z,53.67
2022-10-31T07:11:52.601Z,53.67
2022-10-31T07:14:19.051Z,53.67
2022-10-31T07:16:50.178Z,53.55
2022-10-31T07:19:16.663Z,53.50
2022-10-31T07:21:43.114Z,53.55
2022-10-31T07:24:09.582Z,53.64
2022-10-31T07:26:36.130Z,53.40
2022-10-31T07:29:02.563Z,53.31
2022-10-31T07:31:29.062Z,53.42
2022-10-31T07:33:55.499Z,53.29
2022-10-31T07:36:21.960Z,53.43
2022-10-31T07:38:48.508Z,53.40
2022-10-31T07:41:15.005Z,53.32
2022-10-31T07:43:41.490Z,53.34
2022-10-31T07:46:07.974Z,53.27
2022-10-31T07:48:34.493Z,53.32
2022-10-31T07:51:00.960Z,53.26
2022-10-31T07:53:27.395Z,53.31
2022-10-31T07:55:53.958Z,53.22
2022-10-31T07:58:20.565Z,53.25
2022-10-31T08:00:48.257Z,53.15
2022-10-31T08:03:20.061Z,53.21
2022-10-31T08:05:47.269Z,53.09
2022-10-31T08:08:15.242Z,53.08
2022-10-31T08:10:41.909Z,53.08
2022-10-31T08:13:13.937Z,53.15
2022-10-31T08:15:42.487Z,52.99
2022-10-31T08:18:14.871Z,52.98
2022-10-31T08:20:42.862Z,53.04
2022-10-31T08:23:10.893Z,53.08
2022-10-31T08:25:38.806Z,53.06
2022-10-31T08:28:07.173Z,52.93
2022-10-31T08:30:36.174Z,53.06
2022-10-31T08:33:20.743Z,52.91
2022-10-31T08:35:48.493Z,52.92
2022-10-31T08:38:15.259Z,53.07
2022-10-31T08:40:42.132Z,52.91
2022-10-31T08:43:16.433Z,53.07
2022-10-31T08:45:44.514Z,52.92
2022-10-31T08:48:13.214Z,53.02
2022-10-31T08:50:40.056Z,53.01
2022-10-31T08:53:10.201Z,53.06
2022-10-31T08:55:37.938Z,53.09
2022-10-31T08:58:06.669Z,53.04
2022-10-31T09:00:34.417Z,53.17
2022-10-31T09:03:06.459Z,53.07
2022-10-31T09:05:33.730Z,53.15
2022-10-31T09:08:02.636Z,53.18
2022-10-31T09:10:30.790Z,53.21
2022-10-31T09:13:08.750Z,53.17
2022-10-31T09:15:37.609Z,53.11
2022-10-31T09:18:04.629Z,53.09
2022-10-31T09:20:32.859Z,53.19
2022-10-31T09:23:04.445Z,53.09
2022-10-31T09:25:31.629Z,53.19
2022-10-31T09:28:00.062Z,53.10
2022-10-31T09:30:28.327Z,53.11
2022-10-31T09:33:04.047Z,53.19
2022-10-31T09:35:31.163Z,53.26
2022-10-31T09:37:58.439Z,53.21
2022-10-31T09:40:37.621Z,53.13
2022-10-31T09:43:06.851Z,53.21
2022-10-31T09:45:39.371Z,53.17
2022-10-31T09:48:08.728Z,53.19
2022-10-31T09:50:49.823Z,53.28
2022-10-31T09:53:36.238Z,53.38
2022-10-31T09:56:10.947Z,53.17
2022-10-31T09:58:43.491Z,53.09
2022-10-31T10:04:23.091Z,53.15
2022-10-31T10:06:52.540Z,53.16
2022-10-31T10:09:25.429Z,53.12
2022-10-31T10:12:23.800Z,53.17
2022-10-31T10:15:14.778Z,52.99
2022-10-31T10:18:05.408Z,53.07
2022-10-31T10:20:51.205Z,52.99
2022-10-31T10:23:38.703Z,53.08
2022-10-31T10:26:16.945Z,52.97
2022-10-31T10:28:48.263Z,52.93
2022-10-31T10:31:17.902Z,52.91
2022-10-31T10:33:59.395Z,52.94
2022-10-31T10:36:33.101Z,52.88
2022-10-31T10:39:04.200Z,52.81
2022-10-31T10:41:34.903Z,52.85
2022-10-31T10:44:01.603Z,52.96
2022-10-31T10:47:01.151Z,53.09
2022-10-31T10:49:30.346Z,52.96
2022-10-31T10:52:43.471Z,52.98
2022-10-31T10:55:40.602Z,52.91
2022-10-31T10:58:11.631Z,53.01
2022-10-31T11:00:47.207Z,52.89
2022-10-31T11:03:18.685Z,52.90
2022-10-31T11:05:52.719Z,52.95
2022-10-31T11:08:31.924Z,52.83
2022-10-31T11:11:16.362Z,52.78
2022-10-31T11:13:45.545Z,52.66
2022-10-31T11:16:29.018Z,52.64
2022-10-31T11:19:08.506Z,52.70
2022-10-31T11:21:35.755Z,52.62
2022-10-31T11:24:15.529Z,52.72
2022-10-31T11:26:44.141Z,52.80
2022-10-31T11:29:22.379Z,52.73
2022-10-31T11:31:54.952Z,52.62
2022-10-31T11:34:34.072Z,52.72
2022-10-31T11:37:13.783Z,52.61
2022-10-31T11:39:43.327Z,52.71
2022-10-31T11:42:10.042Z,52.55
2022-10-31T11:44:36.935Z,52.68
2022-10-31T11:47:06.844Z,52.64
2022-10-31T11:49:39.814Z,52.88
2022-10-31T11:52:13.836Z,52.70
2022-10-31T11:54:47.427Z,52.63
2022-10-31T11:57:43.136Z,52.63
2022-10-31T12:03:21.911Z,52.80
2022-10-31T12:05:54.857Z,52.54
2022-10-31T12:08:21.414Z,52.59
2022-10-31T12:11:12.610Z,52.52
2022-10-31T12:14:04.079Z,52.61
2022-10-31T12:16:41.107Z,52.64
2022-10-31T12:19:36.515Z,52.38
2022-10-31T12:22:20.859Z,52.57
2022-10-31T12:28:39.027Z,52.28
2022-10-31T12:34:28.814Z,52.21
2022-10-31T12:37:20.094Z,52.24
2022-10-31T12:40:10.942Z,52.02
2022-10-31T12:43:21.404Z,52.25
2022-10-31T12:45:55.678Z,52.26
2022-10-31T12:49:02.151Z,52.29
2022-10-31T12:52:05.526Z,52.24
2022-10-31T12:54:54.700Z,52.20
2022-10-31T12:57:40.722Z,52.27
2022-10-31T13:00:16.987Z,52.37
2022-10-31T13:02:55.405Z,52.26
2022-10-31T13:05:31.517Z,52.18
2022-10-31T13:08:12.972Z,52.28
2022-10-31T13:10:48.753Z,52.25
2022-10-31T13:13:32.016Z,52.25
2022-10-31T13:16:04.931Z,52.38
2022-10-31T13:18:36.006Z,52.24
2022-10-31T13:21:09.135Z,52.28
2022-10-31T13:23:50.978Z,52.26
2022-10-31T13:26:33.235Z,52.35
2022-10-31T13:29:29.910Z,52.36
2022-10-31T13:31:59.322Z,52.35
2022-10-31T13:34:39.566Z,52.35
2022-10-31T13:37:24.202Z,52.32
2022-10-31T13:40:21.356Z,52.09
2022-10-31T13:46:00.878Z,52.19
2022-10-31T13:48:36.671Z,52.25
2022-10-31T13:51:08.161Z,52.23
2022-10-31T13:53:45.271Z,52.12
2022-10-31T13:56:18.862Z,52.28
2022-10-31T13:59:04.289Z,52.27
2022-10-31T14:01:33.297Z,52.23
2022-10-31T14:04:13.083Z,52.32
2022-10-31T14:06:47.327Z,52.08
2022-10-31T14:09:36.102Z,52.27
2022-10-31T14:12:24.601Z,52.31
2022-10-31T14:14:54.536Z,52.21
2022-10-31T14:17:24.963Z,52.10
2022-10-31T14:20:00.014Z,52.24
2022-10-31T14:22:30.955Z,52.11
2022-10-31T14:24:57.448Z,52.06
2022-10-31T14:27:27.204Z,52.22
2022-10-31T14:29:53.815Z,52.15
2022-10-31T14:32:25.086Z,52.19
2022-10-31T14:34:51.507Z,52.13
2022-10-31T14:40:51.134Z,52.03
2022-10-31T14:43:36.416Z,52.01
2022-10-31T14:46:36.647Z,52.04
2022-10-31T14:49:29.847Z,52.11
2022-10-31T14:51:56.714Z,51.99
2022-10-31T14:54:39.056Z,52.02
2022-10-31T14:57:14.848Z,52.10
2022-10-31T14:59:49.897Z,52.03
2022-10-31T15:02:29.030Z,52.07
2022-10-31T15:04:57.309Z,51.92
2022-10-31T15:07:26.566Z,51.93
2022-10-31T15:10:19.998Z,51.95
2022-10-31T15:12:46.556Z,51.94
2022-10-31T15:15:25.348Z,51.87
2022-10-31T15:18:04.431Z,52.01
2022-10-31T15:20:44.817Z,51.83
2022-10-31T15:23:16.441Z,51.86
2022-10-31T15:25:43.550Z,52.00
2022-10-31T15:28:23.328Z,51.99
2022-10-31T15:30:55.540Z,51.94
2022-10-31T15:33:25.381Z,51.94
2022-10-31T15:36:04.707Z,51.89
2022-10-31T15:38:31.457Z,51.90
2022-10-31T15:41:04.119Z,51.91
2022-10-31T15:43:36.800Z,52.06
2022-10-31T15:46:05.140Z,51.93
2022-10-31T15:48:35.557Z,51.99
2022-10-31T15:51:03.315Z,51.93
2022-10-31T15:53:49.575Z,51.97
2022-10-31T15:56:25.277Z,51.76
2022-10-31T15:58:54.069Z,51.88
2022-10-31T16:01:28.412Z,51.96
2022-10-31T16:07:17.580Z,51.54
2022-10-31T16:09:58.850Z,51.85
2022-10-31T16:12:33.411Z,51.73
2022-10-31T16:14:59.961Z,51.91
2022-10-31T16:17:28.342Z,51.86
2022-10-31T16:20:04.787Z,51.82
2022-10-31T16:22:37.717Z,51.91
2022-10-31T16:25:16.585Z,51.82
2022-10-31T16:27:54.262Z,51.71
2022-10-31T16:30:42.752Z,51.90
2022-10-31T16:33:38.596Z,51.74
2022-10-31T16:36:36.362Z,51.69
2022-10-31T16:39:04.215Z,51.77
2022-10-31T16:41:31.009Z,51.82
2022-10-31T16:43:57.529Z,51.83
2022-10-31T16:46:26.632Z,51.72
2022-10-31T16:48:53.689Z,51.71
2022-10-31T16:51:20.423Z,51.70
2022-10-31T16:53:47.114Z,51.72
2022-10-31T16:56:24.340Z,51.44
2022-10-31T16:58:51.173Z,51.66
2022-10-31T17:01:17.760Z,51.70
2022-10-31T17:03:44.301Z,51.64
2022-10-31T17:06:14.589Z,51.65
2022-10-31T17:08:41.758Z,51.66
2022-10-31T17:11:18.243Z,51.65
2022-10-31T17:13:44.700Z,51.68
2022-10-31T17:16:14.265Z,51.64
2022-10-31T17:18:40.818Z,51.62
2022-10-31T17:21:07.412Z,51.65
2022-10-31T17:23:33.940Z,51.63
2022-10-31T17:26:00.457Z,51.65
2022-10-31T17:28:27.017Z,51.65
2022-10-31T17:30:55.727Z,51.57
2022-10-31T17:33:22.291Z,51.65
2022-10-31T17:35:49.522Z,51.63
2022-10-31T17:38:16.200Z,51.57
2022-10-31T17:40:42.787Z,51.54
2022-10-31T17:43:10.573Z,51.52
2022-10-31T17:45:40.580Z,51.56
2022-10-31T17:48:07.899Z,51.57
2022-10-31T17:50:34.385Z,51.66
2022-10-31T17:53:01.789Z,51.63
2022-10-31T17:55:32.823Z,51.47
2022-10-31T17:58:04.638Z,51.49
2022-10-31T18:00:31.263Z,51.30
2022-10-31T18:02:57.833Z,51.44
2022-10-31T18:05:24.353Z,51.52
2022-10-31T18:07:51.221Z,51.45
2022-10-31T18:10:18.311Z,51.37
2022-10-31T18:12:44.826Z,51.34
2022-10-31T18:15:11.366Z,51.37
2022-10-31T18:17:41.056Z,51.46
2022-10-31T18:20:09.775Z,51.47
2022-10-31T18:22:36.486Z,51.56
2022-10-31T18:25:04.418Z,51.49
2022-10-31T18:27:30.931Z,51.46
2022-10-31T18:29:57.489Z,51.49
2022-10-31T18:32:24.000Z,51.45
2022-10-31T18:34:50.495Z,51.41
2022-10-31T18:37:17.022Z,51.39
2022-10-31T18:39:43.490Z,51.54
2022-10-31T18:42:10.108Z,51.32
2022-10-31T18:44:36.660Z,51.33
2022-10-31T18:47:03.269Z,51.40
2022-10-31T18:49:32.819Z,51.34
2022-10-31T18:51:59.932Z,51.55
2022-10-31T18:54:26.588Z,51.33
2022-10-31T18:56:53.080Z,51.26
2022-10-31T18:59:19.652Z,51.42
2022-10-31T19:01:46.736Z,51.26
2022-10-31T19:04:13.883Z,51.27
2022-10-31T19:06:40.361Z,51.42
2022-10-31T19:09:10.806Z,51.24
2022-10-31T19:11:37.611Z,51.30
2022-10-31T19:14:04.922Z,51.20
2022-10-31T19:16:33.401Z,51.34
2022-10-31T19:19:00.283Z,51.03
2022-10-31T19:21:27.523Z,51.34
2022-10-31T19:23:56.240Z,51.20
2022-10-31T19:26:24.728Z,51.26
2022-10-31T19:28:52.088Z,51.20
2022-10-31T19:31:18.983Z,51.21
2022-10-31T19:33:46.584Z,51.26
2022-10-31T19:36:16.014Z,51.14
2022-10-31T19:38:44.762Z,51.17
2022-10-31T19:41:14.311Z,51.21
2022-10-31T19:43:41.208Z,51.07
2022-10-31T19:46:17.371Z,51.13
2022-10-31T19:48:55.166Z,51.19
2022-10-31T19:51:22.268Z,51.12
2022-10-31T19:53:52.216Z,51.12
2022-10-31T19:56:23.418Z,51.08
2022-10-31T19:58:50.090Z,50.83
2022-10-31T20:01:19.312Z,51.06
2022-10-31T20:03:46.827Z,51.09
2022-10-31T20:06:22.915Z,51.06
2022-10-31T20:08:49.947Z,51.00
2022-10-31T20:11:17.110Z,51.15
2022-10-31T20:13:44.833Z,50.92
2022-10-31T20:16:13.398Z,50.83
2022-10-31T20:18:40.740Z,50.98
2022-10-31T20:21:13.049Z,50.78
2022-10-31T20:23:40.491Z,50.94
2022-10-31T20:26:10.649Z,50.91
2022-10-31T20:28:41.402Z,51.00
2022-10-31T20:31:12.777Z,50.76
2022-10-31T20:33:39.795Z,50.59
2022-10-31T20:36:08.283Z,50.86
2022-10-31T20:38:38.363Z,50.88
2022-10-31T20:41:06.920Z,50.91
2022-10-31T20:43:34.605Z,50.85
2022-10-31T20:46:25.168Z,50.77
2022-10-31T20:48:51.998Z,50.85
2022-10-31T20:51:28.235Z,50.72
2022-10-31T20:53:57.202Z,50.84
2022-10-31T20:56:25.820Z,50.87
2022-10-31T20:58:54.663Z,50.87
2022-10-31T21:01:30.038Z,50.76
2022-10-31T21:03:56.933Z,50.72
2022-10-31T21:06:23.795Z,50.83
2022-10-31T21:08:51.594Z,50.93
2022-10-31T21:11:21.591Z,50.86
2022-10-31T21:13:49.592Z,50.79
2022-10-31T21:16:31.266Z,50.82
2022-10-31T21:19:00.108Z,50.80
2022-10-31T21:21:32.447Z,50.77
2022-10-31T21:24:04.642Z,50.67
2022-10-31T21:26:34.050Z,50.73
2022-10-31T21:29:01.448Z,50.71
2022-10-31T21:31:28.392Z,50.80
2022-10-31T21:33:55.493Z,50.73
2022-10-31T21:36:22.341Z,50.69
2022-10-31T21:38:52.409Z,50.69
2022-10-31T21:41:20.049Z,50.53
2022-10-31T21:43:49.309Z,50.67
2022-10-31T21:46:17.454Z,50.63
2022-10-31T21:48:44.661Z,50.57
2022-10-31T21:51:20.125Z,50.59
2022-10-31T21:54:05.573Z,50.50
2022-10-31T21:56:32.903Z,50.61
2022-10-31T21:58:59.829Z,50.58
2022-10-31T22:01:28.705Z,50.50
2022-10-31T22:03:55.926Z,50.55
2022-10-31T22:06:23.771Z,50.52
2022-10-31T22:08:50.268Z,50.50
2022-10-31T22:11:18.384Z,50.50
2022-10-31T22:13:47.685Z,50.78
2022-10-31T22:16:19.812Z,50.51
2022-10-31T22:18:46.905Z,50.60
2022-10-31T22:21:20.778Z,50.52
2022-10-31T22:23:52.126Z,50.56
2022-10-31T22:26:19.016Z,50.54
2022-10-31T22:28:47.834Z,50.60
2022-10-31T22:31:17.220Z,50.53
2022-10-31T22:33:44.954Z,50.67
2022-10-31T22:36:14.347Z,50.56
2022-10-31T22:38:41.853Z,50.53
2022-10-31T22:41:13.005Z,50.49
2022-10-31T22:43:40.236Z,50.63
2022-10-31T22:46:08.512Z,50.57
2022-10-31T22:48:38.098Z,50.56
2022-10-31T22:51:17.966Z,50.59
2022-10-31T22:53:45.533Z,50.55
2022-10-31T22:56:15.726Z,50.54
2022-10-31T22:58:42.284Z,50.55
2022-10-31T23:01:11.973Z,50.58
2022-10-31T23:03:38.599Z,50.61
2022-10-31T23:06:06.839Z,50.64
2022-10-31T23:08:36.400Z,50.56
2022-10-31T23:11:14.237Z,50.50
2022-10-31T23:13:59.498Z,50.59
2022-10-31T23:16:26.030Z,50.54
2022-10-31T23:18:52.484Z,50.53
2022-10-31T23:21:37.615Z,50.49
2022-10-31T23:24:04.479Z,50.54
2022-10-31T23:26:49.278Z,50.44
2022-10-31T23:29:15.766Z,50.48
2022-10-31T23:31:42.207Z,50.41
2022-10-31T23:34:08.773Z,50.51
2022-10-31T23:36:35.253Z,50.59
2022-10-31T23:39:01.827Z,50.58
2022-10-31T23:41:28.292Z,50.53
2022-10-31T23:43:55.041Z,50.54
2022-10-31T23:46:21.764Z,50.60
2022-10-31T23:48:49.415Z,50.50
2022-10-31T23:51:16.216Z,50.54
2022-10-31T23:53:46.220Z,50.43
2022-10-31T23:56:13.459Z,50.51
2022-10-31T23:58:40.450Z,50.50
